TimeMST,TemperatureF,Dew PointF,Humidity,Sea Level PressureIn,VisibilityMPH,Wind Direction,Wind SpeedMPH,Gust SpeedMPH,PrecipitationIn,Events,Conditions,WindDirDegrees,DateUTC
12:15 AM,32.0,23.0,69,30.38,10.0,WNW,8.1,-,N/A,,Clear,290,2013-01-17 07:15:00
12:35 AM,30.2,23.0,75,30.38,10.0,WNW,8.1,-,N/A,,Clear,300,2013-01-17 07:35:00
12:55 AM,30.2,23.0,75,30.39,10.0,Calm,Calm,-,N/A,,Clear,0,2013-01-17 07:55:00
1:15 AM,30.2,23.0,75,30.39,10.0,Calm,Calm,-,N/A,,Clear,0,2013-01-17 08:15:00
1:35 AM,30.2,23.0,75,30.40,10.0,Calm,Calm,-,N/A,,Clear,0,2013-01-17 08:35:00
1:55 AM,28.4,23.0,80,30.40,10.0,Calm,Calm,-,N/A,,Clear,0,2013-01-17 08:55:00
2:15 AM,28.4,23.0,80,30.41,10.0,Calm,Calm,-,N/A,,Clear,0,2013-01-17 09:15:00
2:35 AM,28.4,23.0,80,30.40,10.0,Calm,Calm,-,N/A,,Clear,0,2013-01-17 09:35:00
2:55 AM,28.4,23.0,80,30.41,10.0,Calm,Calm,-,N/A,,Clear,0,2013-01-17 09:55:00
3:15 AM,28.4,23.0,80,30.41,10.0,Calm,Calm,-,N/A,,Clear,0,2013-01-17 10:15:00
3:35 AM,28.4,23.0,80,30.41,10.0,Calm,Calm,-,N/A,,Clear,0,2013-01-17 10:35:00
3:55 AM,28.4,23.0,80,30.42,10.0,Calm,Calm,-,N/A,,Clear,0,2013-01-17 10:55:00
5:50 AM,28.4,21.2,74,30.42,10.0,NW,6.9,-,N/A,,Clear,320,2013-01-17 12:50:00
6:50 AM,26.6,21.2,80,30.45,10.0,NNW,5.8,-,N/A,,Clear,330,2013-01-17 13:50:00
7:50 AM,33.8,23.0,65,30.48,10.0,NW,3.5,-,N/A,,Clear,320,2013-01-17 14:50:00
8:50 AM,41.0,24.8,53,30.51,10.0,North,5.8,-,N/A,,Clear,360,2013-01-17 15:50:00
9:50 AM,48.2,24.8,40,30.53,10.0,NNE,4.6,-,N/A,,Clear,20,2013-01-17 16:50:00
11:50 AM,53.6,24.8,33,30.49,10.0,NE,6.9,-,N/A,,Clear,50,2013-01-17 18:50:00
12:50 PM,53.6,24.8,33,30.45,10.0,Variable,3.5,-,N/A,,Clear,0,2013-01-17 19:50:00
1:50 PM,53.6,23.0,30,30.43,10.0,Calm,Calm,-,N/A,,Clear,0,2013-01-17 20:50:00
3:50 PM,53.6,23.0,30,30.43,10.0,Calm,Calm,-,N/A,,Clear,0,2013-01-17 22:50:00
4:50 PM,51.8,23.0,33,30.44,10.0,Calm,Calm,-,N/A,,Clear,0,2013-01-17 23:50:00
5:15 PM,48.2,23.0,37,30.44,10.0,Calm,Calm,-,N/A,,Clear,0,2013-01-18 00:15:00
5:50 PM,44.6,23.0,43,30.45,10.0,Calm,Calm,-,N/A,,Clear,0,2013-01-18 00:50:00
6:35 PM,41.0,23.0,49,30.46,10.0,Calm,Calm,-,N/A,,Clear,0,2013-01-18 01:35:00
7:35 PM,39.2,23.0,52,30.46,10.0,Calm,Calm,-,N/A,,Clear,0,2013-01-18 02:35:00
8:15 PM,37.4,23.0,56,30.47,10.0,ESE,6.9,-,N/A,,Clear,120,2013-01-18 03:15:00
10:15 PM,35.6,24.8,65,30.47,10.0,Calm,Calm,-,N/A,,Clear,0,2013-01-18 05:15:00
10:35 PM,33.8,24.8,70,30.46,10.0,Calm,Calm,-,N/A,,Clear,0,2013-01-18 05:35:00
10:55 PM,33.8,23.0,65,30.46,10.0,Calm,Calm,-,N/A,,Clear,0,2013-01-18 05:55:00
11:15 PM,32.0,23.0,69,30.45,10.0,Calm,Calm,-,N/A,,Clear,0,2013-01-18 06:15:00
11:35 PM,32.0,23.0,69,30.45,10.0,Calm,Calm,-,N/A,,Clear,0,2013-01-18 06:35:00